This is the latest recevied weather packets stored in our database for station/object OE3XAM-13. If no packets are shown the sender has not sent any weather packets the latest 10 day(s).
| Time | Temp. | Humidity | Pressure | Rain* | Wind** | Luminosity | Snow |
|---|---|---|---|---|---|---|---|
| 1777642888 | 21.67° C | 27% | 991 hPa | 0 mm | - | - | - |
| 1777641088 | 20.56° C | 27% | 990 hPa | 0 mm | - | - | - |
| 1777639288 | 20.56° C | 27% | 991 hPa | 0 mm | - | - | - |
| 1777637488 | 19.44° C | 28% | 991 hPa | 0 mm | - | - | - |
| 1777635688 | 19.44° C | 28% | 992 hPa | 0 mm | - | - | - |
| 1777633888 | 18.89° C | 29% | 992 hPa | 0 mm | - | - | - |
| 1777632088 | 18.33° C | 29% | 992 hPa | 0 mm | - | - | - |
| 1777630288 | 17.22° C | 31% | 993 hPa | 0 mm | - | - | - |
| 1777628488 | 16.67° C | 31% | 993 hPa | 0 mm | - | - | - |
| 1777626688 | 15.56° C | 31% | 993 hPa | 0 mm | - | - | - |
| 1777624888 | 14.44° C | 32% | 993 hPa | 0 mm | - | - | - |
| 1777623088 | 12.22° C | 36% | 994 hPa | 0 mm | - | - | - |
| 1777621288 | 10° C | 43% | 993 hPa | 0 mm | - | - | - |
| 1777619488 | 8.33° C | 49% | 994 hPa | 0 mm | - | - | - |
| 1777617688 | 6.11° C | 59% | 994 hPa | 0 mm | - | - | - |
| 1777615888 | 3.89° C | 67% | 993 hPa | 0 mm | - | - | - |
| 1777614088 | 2.22° C | 74% | 993 hPa | 0 mm | - | - | - |
| 1777612288 | 0.56° C | 79% | 993 hPa | 0 mm | - | - | - |
| 1777610488 | 0° C | 79% | 992 hPa | 0 mm | - | - | - |
| 1777608688 | -0.56° C | 79% | 993 hPa | 0 mm | - | - | - |
| 1777606888 | -0.56° C | 78% | 993 hPa | 0 mm | - | - | - |
| 1777605088 | -0.56° C | 77% | 993 hPa | 0 mm | - | - | - |
| 1777603288 | 0° C | 77% | 993 hPa | 0 mm | - | - | - |
| 1777601488 | 0° C | 76% | 993 hPa | 0 mm | - | - | - |
| 1777599688 | 0.56° C | 75% | 993 hPa | 0 mm | - | - | - |
* Rain latest hour (hover to see other rain measurements)
** Current wind speed in m/s (hover to see current wind gust speed)